Time;durP1;ratioP1;P1;durP2;ratioP2;P2;SDS_P1;SDS_P2;PMS_P1;PMS_P2;Temp;Humidity;BMP_temperature;BMP_pressure;BME280_temperature;BME280_humidity;BME280_pressure;Samples;Min_cycle;Max_cycle;Signal;HPM_P1;HPM_P2
2023/04/04 00:00:51;;;;;;;2.55;0.60;;;19.70;64.10;;;;;;5030276;28;20049;-73
2023/04/04 00:03:18;;;;;;;1.30;0.57;;;19.70;64.10;;;;;;5043959;28;20041;-72
2023/04/04 00:05:45;;;;;;;2.55;0.30;;;19.70;64.20;;;;;;5041570;28;20616;-73
2023/04/04 00:08:12;;;;;;;1.85;0.22;;;19.60;64.10;;;;;;5030056;28;20049;-73
2023/04/04 00:10:40;;;;;;;1.70;0.70;;;19.60;64.10;;;;;;5035122;28;20044;-72
2023/04/04 00:13:08;;;;;;;2.50;0.52;;;19.60;64.10;;;;;;5030333;28;20060;-72
2023/04/04 00:15:35;;;;;;;1.65;0.88;;;19.60;64.10;;;;;;5035700;28;20057;-73
2023/04/04 00:18:02;;;;;;;1.90;0.30;;;19.60;64.10;;;;;;5044810;28;20092;-73
2023/04/04 00:20:29;;;;;;;1.40;0.57;;;19.60;64.10;;;;;;5033574;28;20057;-72
2023/04/04 00:22:56;;;;;;;1.55;0.43;;;19.60;64.10;;;;;;5032701;28;20049;-73
2023/04/04 00:25:24;;;;;;;1.88;0.30;;;19.60;64.70;;;;;;5042818;28;20049;-73
2023/04/04 00:27:52;;;;;;;1.80;0.75;;;19.60;64.70;;;;;;5041283;28;20049;-73
2023/04/04 00:30:19;;;;;;;1.70;0.13;;;19.50;64.10;;;;;;5029834;28;20054;-73
2023/04/04 00:32:46;;;;;;;1.92;0.40;;;19.60;64.20;;;;;;5046534;28;20053;-73
2023/04/04 00:35:13;;;;;;;1.77;0.93;;;19.50;64.10;;;;;;5040156;28;20060;-72
2023/04/04 00:37:40;;;;;;;2.30;0.80;;;19.50;64.10;;;;;;5029891;28;20045;-72
2023/04/04 00:40:08;;;;;;;1.45;0.55;;;19.50;64.00;;;;;;5029979;28;20049;-72
2023/04/04 00:42:36;;;;;;;2.17;0.20;;;19.60;64.10;;;;;;5034025;28;20522;-73
2023/04/04 00:45:06;;;;;;;1.50;0.20;;;19.60;64.00;;;;;;5041192;28;20048;-73
2023/04/04 00:47:34;;;;;;;1.38;0.22;;;19.60;64.00;;;;;;5033218;28;20128;-72
2023/04/04 00:50:02;;;;;;;1.55;0.50;;;19.60;63.90;;;;;;5039673;28;20063;-73
2023/04/04 00:52:29;;;;;;;0.80;0.20;;;19.70;63.80;;;;;;5041512;28;20041;-72
2023/04/04 00:54:56;;;;;;;1.35;0.68;;;19.70;63.80;;;;;;5034620;28;20053;-74
2023/04/04 00:57:23;;;;;;;1.83;0.20;;;19.70;63.70;;;;;;5035790;28;20061;-73
2023/04/04 00:59:51;;;;;;;1.40;0.30;;;19.80;63.70;;;;;;5029567;28;20049;-72
2023/04/04 01:02:19;;;;;;;1.77;0.20;;;19.80;63.60;;;;;;5035819;28;20048;-73
2023/04/04 01:04:47;;;;;;;1.30;0.65;;;19.90;63.60;;;;;;5035434;28;20055;-72
2023/04/04 01:07:14;;;;;;;2.95;0.68;;;19.90;63.60;;;;;;5029788;28;20061;-72
2023/04/04 01:09:41;;;;;;;1.83;0.30;;;20.00;63.50;;;;;;5035936;28;20053;-73
2023/04/04 01:12:09;;;;;;;2.20;1.17;;;20.00;63.40;;;;;;5048530;28;20577;-72
2023/04/04 01:14:35;;;;;;;1.38;0.50;;;20.10;63.30;;;;;;5048584;28;20057;-73
2023/04/04 01:17:05;;;;;;;2.03;0.52;;;20.20;63.30;;;;;;5047921;28;20049;-72
2023/04/04 01:19:37;;;;;;;1.80;0.60;;;20.20;63.20;;;;;;5029288;28;20057;-73
2023/04/04 01:22:06;;;;;;;1.17;0.47;;;20.20;63.10;;;;;;5042871;28;20045;-73
2023/04/04 01:24:34;;;;;;;1.55;0.55;;;20.30;63.10;;;;;;5030967;28;20053;-72
2023/04/04 01:27:03;;;;;;;1.85;0.55;;;20.20;63.00;;;;;;5035510;28;20068;-72
2023/04/04 01:29:30;;;;;;;2.40;0.57;;;20.30;63.10;;;;;;5045714;28;20735;-73
2023/04/04 01:32:04;;;;;;;1.67;0.30;;;20.30;63.00;;;;;;5047333;28;20056;-73
2023/04/04 01:34:40;;;;;;;1.33;0.65;;;20.30;62.90;;;;;;5035479;28;20491;-73
2023/04/04 01:37:15;;;;;;;1.58;0.57;;;20.30;62.90;;;;;;5042686;28;20048;-73
2023/04/04 01:39:48;;;;;;;1.33;0.40;;;20.30;62.90;;;;;;5028995;28;20054;-72
2023/04/04 01:42:18;;;;;;;1.80;0.63;;;20.30;62.90;;;;;;5040602;28;20154;-73
2023/04/04 01:44:46;;;;;;;2.00;0.57;;;20.20;62.90;;;;;;5028510;28;20128;-73
2023/04/04 01:47:13;;;;;;;2.35;0.68;;;20.20;62.90;;;;;;5028806;28;20048;-73
2023/04/04 01:49:41;;;;;;;2.10;0.60;;;20.20;62.90;;;;;;5038573;28;20053;-73
2023/04/04 01:52:08;;;;;;;0.90;0.40;;;20.20;63.00;;;;;;5039665;28;20054;-73
2023/04/04 01:54:35;;;;;;;1.40;0.20;;;20.10;63.00;;;;;;5027686;28;20071;-73
2023/04/04 01:57:02;;;;;;;1.80;0.22;;;20.10;63.00;;;;;;5031474;28;20046;-73
2023/04/04 01:59:31;;;;;;;2.10;0.73;;;20.00;63.00;;;;;;5030216;28;20052;-72
2023/04/04 02:01:58;;;;;;;1.83;0.43;;;20.00;63.10;;;;;;5032830;28;20053;-73
2023/04/04 02:04:25;;;;;;;1.48;0.50;;;20.00;63.20;;;;;;5045397;28;20049;-73
2023/04/04 02:06:54;;;;;;;2.17;0.63;;;20.00;63.90;;;;;;5043987;28;20134;-73
2023/04/04 02:09:21;;;;;;;1.33;0.68;;;20.00;63.30;;;;;;5033831;28;20077;-73
2023/04/04 02:11:48;;;;;;;1.48;0.50;;;19.90;63.30;;;;;;5034284;28;20132;-72
2023/04/04 02:14:15;;;;;;;1.45;0.60;;;19.90;63.40;;;;;;5041550;28;20045;-73
2023/04/04 02:16:43;;;;;;;1.00;0.20;;;19.90;63.40;;;;;;5032908;28;20514;-73
2023/04/04 02:19:10;;;;;;;1.45;0.50;;;19.80;63.30;;;;;;5050996;28;20052;-73
2023/04/04 02:21:37;;;;;;;0.85;0.10;;;19.80;63.40;;;;;;5049720;28;20068;-72
2023/04/04 02:24:05;;;;;;;1.45;0.22;;;19.80;63.40;;;;;;5042429;28;20060;-73
2023/04/04 02:26:32;;;;;;;1.15;0.13;;;19.70;63.40;;;;;;5035751;28;20061;-73
2023/04/04 02:28:59;;;;;;;1.92;0.20;;;19.70;63.40;;;;;;5032247;28;20053;-73
2023/04/04 02:31:26;;;;;;;1.20;0.50;;;19.70;63.40;;;;;;5032160;28;20072;-73
2023/04/04 02:33:54;;;;;;;1.10;0.43;;;19.70;63.40;;;;;;5031924;28;20232;-73
2023/04/04 02:36:21;;;;;;;1.23;0.13;;;19.70;63.40;;;;;;5045461;28;20053;-73
2023/04/04 02:38:48;;;;;;;2.83;0.20;;;19.70;63.40;;;;;;5033282;28;20513;-73
2023/04/04 02:41:15;;;;;;;0.85;0.20;;;19.70;63.50;;;;;;5037420;28;20060;-73
2023/04/04 02:43:42;;;;;;;2.33;0.10;;;19.60;63.40;;;;;;5038687;28;20394;-73
2023/04/04 02:46:09;;;;;;;1.30;0.50;;;19.60;63.50;;;;;;5037803;28;20049;-73
2023/04/04 02:48:36;;;;;;;1.42;0.77;;;19.60;63.50;;;;;;5039642;28;20046;-73
2023/04/04 02:51:04;;;;;;;2.13;0.50;;;19.60;63.50;;;;;;5034184;28;20048;-72
2023/04/04 02:53:31;;;;;;;1.38;0.30;;;19.60;63.50;;;;;;5039209;28;20839;-73
2023/04/04 02:55:58;;;;;;;1.33;0.20;;;19.60;63.50;;;;;;5035649;28;20045;-73
2023/04/04 02:58:25;;;;;;;1.52;0.52;;;19.50;63.40;;;;;;5043605;28;20052;-72
2023/04/04 03:00:55;;;;;;;1.20;0.28;;;19.50;63.40;;;;;;5043163;28;20049;-72
2023/04/04 03:03:22;;;;;;;1.63;0.90;;;19.50;63.50;;;;;;5035043;28;20053;-72
2023/04/04 03:05:50;;;;;;;1.85;0.60;;;19.60;63.50;;;;;;5030708;28;20061;-72
2023/04/04 03:08:18;;;;;;;1.48;0.60;;;19.60;63.40;;;;;;5041770;28;20049;-72
2023/04/04 03:10:46;;;;;;;2.28;1.23;;;19.60;63.30;;;;;;5030271;28;20049;-72
2023/04/04 03:13:13;;;;;;;1.50;0.73;;;19.70;63.30;;;;;;5043806;28;20433;-72
2023/04/04 03:15:40;;;;;;;1.23;0.50;;;19.70;63.20;;;;;;5041206;28;20059;-72
2023/04/04 03:18:07;;;;;;;0.93;0.10;;;19.80;63.20;;;;;;5040141;28;20052;-72
2023/04/04 03:20:34;;;;;;;1.70;0.20;;;19.80;63.10;;;;;;5044594;28;20410;-71
2023/04/04 03:23:02;;;;;;;1.10;0.15;;;19.80;63.10;;;;;;5030124;28;20060;-72
2023/04/04 03:25:30;;;;;;;1.00;0.43;;;19.90;63.00;;;;;;5030820;28;20546;-72
2023/04/04 03:27:57;;;;;;;1.02;0.40;;;19.90;63.00;;;;;;5041937;28;20133;-72
2023/04/04 03:30:24;;;;;;;1.27;0.20;;;19.90;62.90;;;;;;5031136;28;20053;-73
2023/04/04 03:32:52;;;;;;;0.95;0.47;;;19.90;62.90;;;;;;5050542;28;20490;-72
2023/04/04 03:35:19;;;;;;;1.00;0.40;;;20.00;62.90;;;;;;5037108;28;20055;-72
2023/04/04 03:37:46;;;;;;;0.93;0.38;;;20.00;62.80;;;;;;5049351;28;20049;-73
2023/04/04 03:40:13;;;;;;;1.67;0.52;;;20.10;62.70;;;;;;5029081;28;20133;-72
2023/04/04 03:42:42;;;;;;;1.20;0.10;;;20.20;62.70;;;;;;5033441;28;20395;-72
2023/04/04 03:45:10;;;;;;;0.80;0.10;;;20.20;62.60;;;;;;5050715;28;20049;-72
2023/04/04 03:47:37;;;;;;;0.82;0.10;;;20.20;62.50;;;;;;5040578;28;20730;-72
2023/04/04 03:50:04;;;;;;;0.88;0.10;;;20.30;62.50;;;;;;5043025;28;20049;-72
2023/04/04 03:52:34;;;;;;;1.20;0.30;;;20.30;62.40;;;;;;5030123;28;20053;-72
2023/04/04 03:55:01;;;;;;;1.65;0.20;;;20.30;62.40;;;;;;5036189;28;20076;-73
2023/04/04 03:57:28;;;;;;;1.13;0.10;;;20.30;62.40;;;;;;5038280;28;20504;-72
2023/04/04 03:59:56;;;;;;;0.70;0.10;;;20.30;62.40;;;;;;5037296;28;20071;-72
2023/04/04 04:02:23;;;;;;;1.45;0.43;;;20.30;62.40;;;;;;5038893;28;20425;-72
2023/04/04 04:04:50;;;;;;;1.25;0.55;;;20.30;62.40;;;;;;5039013;28;20056;-73
2023/04/04 04:07:17;;;;;;;1.27;0.45;;;20.20;62.40;;;;;;5037065;28;20048;-72
2023/04/04 04:09:44;;;;;;;1.20;0.10;;;20.20;62.30;;;;;;5046603;28;20609;-73
2023/04/04 04:12:11;;;;;;;1.40;0.20;;;20.20;62.30;;;;;;5038991;28;20500;-72
2023/04/04 04:14:38;;;;;;;1.00;0.10;;;20.20;62.30;;;;;;5028490;28;20083;-72
2023/04/04 04:17:07;;;;;;;0.80;0.10;;;20.20;62.40;;;;;;5029919;28;20053;-73
2023/04/04 04:19:34;;;;;;;0.85;0.10;;;20.10;62.40;;;;;;5047750;28;20970;-74
2023/04/04 04:22:00;;;;;;;1.42;0.10;;;20.10;62.40;;;;;;5039207;28;20056;-73
2023/04/04 04:24:27;;;;;;;1.25;0.15;;;20.10;62.40;;;;;;5044238;28;20063;-74
2023/04/04 04:26:54;;;;;;;0.90;0.15;;;20.00;62.40;;;;;;5037560;28;20671;-73
2023/04/04 04:29:21;;;;;;;1.45;0.15;;;20.00;62.50;;;;;;5031198;28;20049;-72
2023/04/04 04:31:48;;;;;;;1.20;0.20;;;20.00;62.60;;;;;;5031955;28;20066;-73
2023/04/04 04:34:17;;;;;;;1.20;0.47;;;19.90;62.60;;;;;;5046217;28;20052;-73
2023/04/04 04:36:44;;;;;;;1.30;0.22;;;19.90;62.60;;;;;;5032858;28;20136;-73
2023/04/04 04:39:10;;;;;;;1.52;0.60;;;19.80;63.20;;;;;;5041253;28;20045;-73
2023/04/04 04:41:38;;;;;;;0.90;0.10;;;19.80;62.70;;;;;;5048800;28;20045;-74
2023/04/04 04:44:13;;;;;;;0.88;0.10;;;19.80;63.40;;;;;;5049991;28;20048;-72
2023/04/04 04:46:40;;;;;;;1.50;0.20;;;19.70;62.80;;;;;;5039670;28;20050;-73
2023/04/04 04:49:07;;;;;;;1.58;0.35;;;19.70;62.80;;;;;;5048194;28;20095;-72
2023/04/04 04:51:36;;;;;;;1.13;0.10;;;19.70;62.90;;;;;;5044700;28;20060;-73
2023/04/04 04:54:03;;;;;;;1.10;0.52;;;19.70;62.90;;;;;;5029693;28;20057;-73
2023/04/04 04:56:32;;;;;;;;;;;19.60;62.90;;;;;;5030153;28;20877;-74
2023/04/04 04:59:02;;;;;;;0.80;0.17;;;19.60;62.80;;;;;;5028449;28;20365;-74
2023/04/04 05:01:29;;;;;;;0.77;0.10;;;19.50;62.90;;;;;;5030971;28;20049;-73
2023/04/04 05:03:56;;;;;;;0.70;0.20;;;19.50;63.50;;;;;;5029432;28;20060;-74
2023/04/04 05:06:26;;;;;;;1.05;0.50;;;19.50;62.90;;;;;;5033509;28;20049;-73
2023/04/04 05:08:54;;;;;;;1.17;0.50;;;19.50;62.90;;;;;;5039941;28;20052;-73
2023/04/04 05:11:21;;;;;;;1.00;0.45;;;19.50;62.90;;;;;;5030898;28;20051;-71
2023/04/04 05:13:48;;;;;;;0.95;0.40;;;19.50;62.90;;;;;;5028522;28;20115;-73
2023/04/04 05:16:16;;;;;;;1.77;0.80;;;19.50;62.90;;;;;;5036879;28;20048;-73
2023/04/04 05:18:44;;;;;;;1.52;0.40;;;19.60;62.90;;;;;;5049407;28;20067;-72
2023/04/04 05:21:11;;;;;;;1.27;0.10;;;19.60;62.80;;;;;;5038177;28;20059;-73
2023/04/04 05:23:38;;;;;;;1.83;0.60;;;19.70;62.70;;;;;;5030629;28;20521;-73
2023/04/04 05:26:06;;;;;;;1.00;0.10;;;19.70;62.70;;;;;;5032947;28;20045;-72
2023/04/04 05:28:34;;;;;;;0.60;0.10;;;19.70;62.70;;;;;;5027439;28;20048;-72
2023/04/04 05:31:01;;;;;;;1.20;0.40;;;19.70;62.60;;;;;;5039598;28;20049;-73
2023/04/04 05:33:28;;;;;;;0.90;0.50;;;19.70;62.60;;;;;;5046275;28;20055;-72
2023/04/04 05:35:55;;;;;;;1.00;0.50;;;19.80;62.60;;;;;;5039009;28;20049;-72
2023/04/04 05:38:22;;;;;;;1.10;0.52;;;19.80;62.60;;;;;;5039309;28;20465;-72
2023/04/04 05:40:49;;;;;;;0.85;0.20;;;19.80;62.50;;;;;;5040900;28;20062;-73
2023/04/04 05:43:17;;;;;;;1.17;0.80;;;19.90;62.50;;;;;;5034726;28;20080;-73
2023/04/04 05:45:44;;;;;;;0.90;0.03;;;19.90;62.40;;;;;;5039016;28;20065;-73
2023/04/04 05:48:11;;;;;;;0.88;0.10;;;20.00;62.30;;;;;;5029681;28;20052;-74
2023/04/04 05:50:38;;;;;;;0.73;0.03;;;20.10;62.30;;;;;;5034090;28;20056;-71
2023/04/04 05:53:05;;;;;;;0.88;0.10;;;20.10;62.20;;;;;;5037399;28;20044;-71
2023/04/04 05:55:32;;;;;;;0.73;0.28;;;20.40;62.20;;;;;;5039991;28;20053;-71
2023/04/04 05:57:59;;;;;;;0.95;0.20;;;21.10;61.30;;;;;;5030219;28;20053;-71
2023/04/04 06:00:28;;;;;;;1.10;0.80;;;21.90;60.00;;;;;;5033839;28;20057;-72
2023/04/04 06:02:57;;;;;;;1.02;0.13;;;22.20;58.90;;;;;;5034898;28;20539;-71
2023/04/04 06:05:24;;;;;;;1.13;0.55;;;22.20;58.70;;;;;;5042356;28;20053;-71
2023/04/04 06:07:51;;;;;;;1.65;0.43;;;22.00;58.70;;;;;;5040578;28;20068;-71
2023/04/04 06:10:18;;;;;;;1.00;0.20;;;22.00;58.90;;;;;;5034093;28;20046;-71
2023/04/04 06:12:45;;;;;;;1.10;0.60;;;21.90;59.00;;;;;;5042183;28;20049;-71
2023/04/04 06:15:12;;;;;;;1.55;0.77;;;21.80;59.20;;;;;;5037605;28;20472;-71
2023/04/04 06:17:41;;;;;;;2.50;0.47;;;21.70;59.40;;;;;;5046874;28;20053;-70
2023/04/04 06:20:09;;;;;;;0.73;0.10;;;21.60;59.40;;;;;;5032296;28;20060;-71
2023/04/04 06:22:36;;;;;;;1.17;0.28;;;21.60;59.70;;;;;;5028295;28;20049;-72
2023/04/04 06:25:03;;;;;;;2.38;0.52;;;21.50;59.80;;;;;;5037767;28;20061;-71
2023/04/04 06:27:30;;;;;;;1.33;0.52;;;21.40;59.90;;;;;;5040560;28;20057;-71
2023/04/04 06:29:57;;;;;;;0.95;0.45;;;21.40;60.20;;;;;;5034253;28;20051;-70
2023/04/04 06:32:25;;;;;;;1.25;0.52;;;21.30;60.30;;;;;;5033037;28;20045;-70
2023/04/04 06:34:53;;;;;;;1.10;0.40;;;21.30;60.40;;;;;;5036406;28;20046;-71
2023/04/04 06:37:20;;;;;;;1.48;0.50;;;21.20;60.50;;;;;;5027996;28;20050;-71
2023/04/04 06:39:47;;;;;;;1.00;0.10;;;21.10;60.70;;;;;;5031473;28;20048;-71
2023/04/04 06:42:14;;;;;;;0.77;0.10;;;21.10;60.80;;;;;;5030623;28;20053;-71
2023/04/04 06:44:41;;;;;;;1.10;0.82;;;21.10;60.80;;;;;;5032384;28;20072;-70
2023/04/04 06:47:08;;;;;;;1.20;0.77;;;21.10;60.80;;;;;;5038735;28;20080;-71
2023/04/04 06:49:35;;;;;;;1.58;0.65;;;21.10;60.80;;;;;;5032328;28;20056;-71
2023/04/04 06:52:04;;;;;;;0.73;0.20;;;21.10;60.80;;;;;;5042747;28;20691;-71
2023/04/04 06:54:32;;;;;;;0.88;0.30;;;21.00;60.80;;;;;;5028409;28;20053;-72
2023/04/04 06:56:59;;;;;;;1.17;0.77;;;21.10;60.80;;;;;;5026918;28;20057;-71
2023/04/04 06:59:26;;;;;;;1.23;0.77;;;21.00;60.80;;;;;;5029666;28;20049;-72
2023/04/04 07:01:53;;;;;;;1.00;0.40;;;21.00;60.90;;;;;;5032147;28;20061;-71
2023/04/04 07:04:20;;;;;;;1.48;0.65;;;20.90;60.90;;;;;;5029805;28;20158;-71
2023/04/04 07:06:47;;;;;;;1.63;0.50;;;20.90;60.90;;;;;;5030933;28;21381;-71
2023/04/04 07:09:16;;;;;;;1.10;0.70;;;20.90;61.20;;;;;;5031472;28;20505;-71
2023/04/04 07:11:42;;;;;;;2.65;0.50;;;20.80;61.10;;;;;;5028509;28;20580;-71
2023/04/04 07:14:09;;;;;;;4.03;0.22;;;20.70;61.10;;;;;;5031162;28;20541;-71
2023/04/04 07:16:36;;;;;;;0.82;0.13;;;20.70;61.20;;;;;;5035015;28;20474;-71
2023/04/04 07:19:04;;;;;;;1.77;0.40;;;20.70;61.30;;;;;;5032089;28;20549;-71
2023/04/04 07:21:31;;;;;;;1.52;0.47;;;20.60;61.20;;;;;;5028420;28;20741;-71
2023/04/04 07:23:58;;;;;;;0.90;0.60;;;20.60;61.30;;;;;;5029261;28;20468;-71
2023/04/04 07:26:27;;;;;;;1.52;0.50;;;20.60;61.40;;;;;;5037561;28;20128;-71
2023/04/04 07:28:54;;;;;;;0.90;0.17;;;20.60;61.40;;;;;;5032462;28;20397;-71
2023/04/04 07:31:21;;;;;;;1.40;0.45;;;20.60;61.50;;;;;;5039049;28;20509;-71
2023/04/04 07:33:48;;;;;;;1.38;0.60;;;20.60;61.60;;;;;;5035553;28;20600;-71
2023/04/04 07:36:15;;;;;;;1.40;0.52;;;20.50;61.40;;;;;;5038126;28;20053;-71
2023/04/04 07:38:42;;;;;;;1.40;0.57;;;20.50;61.50;;;;;;5038743;28;20053;-71
2023/04/04 07:41:10;;;;;;;0.70;0.10;;;20.50;61.50;;;;;;5036765;28;20053;-71
2023/04/04 07:43:38;;;;;;;0.88;0.40;;;20.50;61.50;;;;;;5037293;28;20045;-71
2023/04/04 07:46:05;;;;;;;1.98;0.20;;;20.50;61.60;;;;;;5033604;28;20456;-71
2023/04/04 07:48:32;;;;;;;0.88;0.40;;;20.50;61.60;;;;;;5034021;28;20056;-71
2023/04/04 07:51:03;;;;;;;0.93;0.47;;;20.50;61.60;;;;;;5039082;28;20489;-71
2023/04/04 07:53:30;;;;;;;1.00;0.10;;;20.50;61.70;;;;;;5039833;28;20054;-71
2023/04/04 07:55:57;;;;;;;0.85;0.40;;;20.50;61.70;;;;;;5033547;28;20103;-70
2023/04/04 07:58:24;;;;;;;1.10;0.52;;;20.50;61.70;;;;;;5044429;28;20048;-71
2023/04/04 08:00:52;;;;;;;0.98;0.50;;;20.50;61.80;;;;;;5032380;28;20136;-70
2023/04/04 08:03:19;;;;;;;0.85;0.47;;;20.50;61.80;;;;;;5027028;28;20041;-71
2023/04/04 08:05:46;;;;;;;1.10;0.30;;;20.40;61.80;;;;;;5034546;28;20056;-70
2023/04/04 08:08:13;;;;;;;0.98;0.45;;;20.40;61.90;;;;;;5033799;28;20038;-70
2023/04/04 08:10:40;;;;;;;1.38;0.60;;;20.50;61.90;;;;;;5035599;28;20197;-70
2023/04/04 08:13:08;;;;;;;0.65;0.10;;;20.40;61.90;;;;;;5030148;28;20052;-70
2023/04/04 08:15:35;;;;;;;1.65;0.20;;;20.40;62.00;;;;;;5044583;28;20472;-70
2023/04/04 08:18:04;;;;;;;0.77;0.45;;;20.40;62.00;;;;;;5033552;28;20076;-69
2023/04/04 08:20:31;;;;;;;1.58;0.68;;;20.40;61.90;;;;;;5029581;28;20056;-69
2023/04/04 08:22:58;;;;;;;1.27;0.45;;;20.40;61.80;;;;;;5035023;28;20057;-70
2023/04/04 08:25:25;;;;;;;1.00;0.47;;;20.40;61.90;;;;;;5040880;28;20045;-70
2023/04/04 08:27:52;;;;;;;0.55;0.10;;;20.40;61.90;;;;;;5035316;28;20049;-70
2023/04/04 08:30:20;;;;;;;0.63;0.10;;;20.40;61.90;;;;;;5035713;28;20486;-70
2023/04/04 08:32:47;;;;;;;0.90;0.10;;;20.40;61.90;;;;;;5036388;28;20565;-70
2023/04/04 08:35:16;;;;;;;0.93;0.60;;;20.50;61.90;;;;;;5033815;28;20532;-70
2023/04/04 08:37:45;;;;;;;1.08;0.55;;;20.50;61.90;;;;;;5030166;28;20486;-69
2023/04/04 08:40:12;;;;;;;0.93;0.10;;;20.40;61.90;;;;;;5038740;28;20107;-70
2023/04/04 08:42:42;;;;;;;2.30;0.52;;;20.40;61.90;;;;;;5033495;28;20061;-70
2023/04/04 08:45:11;;;;;;;0.50;0.10;;;20.50;62.00;;;;;;5035825;28;20659;-70
2023/04/04 08:47:38;;;;;;;0.80;0.10;;;20.50;62.00;;;;;;5038541;28;20052;-70
2023/04/04 08:50:07;;;;;;;1.55;0.63;;;20.50;62.00;;;;;;5039430;28;20065;-70
2023/04/04 08:52:36;;;;;;;0.98;0.40;;;20.40;62.00;;;;;;5034111;28;20137;-70
2023/04/04 08:55:05;;;;;;;1.77;0.40;;;20.50;62.00;;;;;;5030318;28;20053;-70
2023/04/04 08:57:33;;;;;;;1.23;0.73;;;20.50;62.00;;;;;;5030238;28;20104;-70
2023/04/04 09:00:01;;;;;;;1.30;0.70;;;20.50;62.00;;;;;;5029982;28;20080;-70
2023/04/04 09:02:34;;;;;;;1.45;0.10;;;20.50;62.70;;;;;;5032977;28;20060;-71
2023/04/04 09:05:02;;;;;;;1.23;0.10;;;20.50;62.10;;;;;;5029819;28;20106;-70
2023/04/04 09:07:30;;;;;;;1.30;0.50;;;20.50;62.10;;;;;;5029550;28;20125;-70
2023/04/04 09:09:59;;;;;;;1.00;0.50;;;20.50;62.10;;;;;;5026229;28;20056;-70
2023/04/04 09:12:27;;;;;;;1.67;0.10;;;20.50;62.10;;;;;;5031660;28;20044;-70
2023/04/04 09:14:56;;;;;;;1.00;0.40;;;20.50;62.10;;;;;;5033481;28;20045;-70
2023/04/04 09:17:23;;;;;;;1.60;0.70;;;20.50;62.20;;;;;;5030462;28;20103;-70
2023/04/04 09:19:53;;;;;;;1.17;0.10;;;20.50;62.20;;;;;;5028064;28;20420;-70
2023/04/04 09:22:20;;;;;;;1.30;0.10;;;20.50;62.20;;;;;;5028635;28;20490;-70
2023/04/04 09:24:47;;;;;;;1.15;0.40;;;20.50;62.30;;;;;;5032795;28;20053;-70
2023/04/04 09:27:16;;;;;;;1.27;0.32;;;20.40;62.20;;;;;;5033207;28;20055;-71
2023/04/04 09:29:43;;;;;;;1.55;0.45;;;20.40;62.30;;;;;;5036577;28;20081;-71
2023/04/04 09:32:10;;;;;;;1.40;0.47;;;20.50;62.40;;;;;;5026594;28;20046;-70
2023/04/04 09:34:37;;;;;;;0.95;0.50;;;20.50;62.30;;;;;;5028232;28;20052;-71
2023/04/04 09:37:05;;;;;;;1.65;1.02;;;20.50;62.30;;;;;;5039677;28;20068;-70
2023/04/04 09:39:33;;;;;;;1.77;0.80;;;20.50;62.40;;;;;;5029759;28;20055;-70
2023/04/04 09:42:01;;;;;;;1.15;0.47;;;20.50;62.40;;;;;;5039626;28;20067;-71
2023/04/04 09:44:32;;;;;;;1.27;0.40;;;20.50;62.40;;;;;;5035293;28;20091;-71
2023/04/04 09:47:29;;;;;;;1.30;0.38;;;20.50;62.40;;;;;;5036845;28;20100;-71
2023/04/04 09:49:58;;;;;;;1.23;0.43;;;20.50;62.50;;;;;;5033272;28;20046;-71
2023/04/04 09:52:25;;;;;;;0.80;0.22;;;20.50;62.50;;;;;;5033634;28;20053;-70
2023/04/04 09:54:57;;;;;;;0.85;0.40;;;20.50;62.50;;;;;;5033753;28;20045;-70
2023/04/04 09:57:25;;;;;;;0.50;0.10;;;20.50;62.50;;;;;;5030404;28;20053;-70
2023/04/04 09:59:55;;;;;;;0.68;0.10;;;20.50;62.50;;;;;;5037793;28;20053;-70
2023/04/04 10:02:22;;;;;;;1.15;0.20;;;20.50;62.50;;;;;;5027614;28;20620;-71
2023/04/04 10:04:50;;;;;;;0.93;0.38;;;20.60;62.60;;;;;;5027213;28;20064;-71
2023/04/04 10:07:17;;;;;;;1.27;0.47;;;20.60;62.60;;;;;;5030134;28;20068;-71
2023/04/04 10:09:46;;;;;;;0.80;0.47;;;20.60;62.60;;;;;;5033731;28;20045;-71
2023/04/04 10:12:16;;;;;;;1.05;0.30;;;20.60;62.60;;;;;;5039963;28;20146;-71
2023/04/04 10:14:43;;;;;;;1.05;0.50;;;20.60;62.60;;;;;;5036145;28;20533;-71
2023/04/04 10:17:12;;;;;;;1.17;0.20;;;20.60;62.60;;;;;;5030131;28;20049;-75
2023/04/04 10:19:39;;;;;;;1.20;0.57;;;20.60;62.60;;;;;;5032359;28;20049;-69
2023/04/04 10:22:06;;;;;;;1.40;0.47;;;20.60;62.60;;;;;;5031321;28;20056;-71
2023/04/04 10:24:35;;;;;;;1.20;0.20;;;20.60;62.60;;;;;;5034890;28;20231;-70
2023/04/04 10:27:02;;;;;;;0.82;0.10;;;20.60;62.60;;;;;;5039503;28;20057;-71
2023/04/04 10:29:31;;;;;;;1.55;0.52;;;20.60;62.60;;;;;;5034295;28;20132;-70
2023/04/04 10:32:02;;;;;;;1.00;0.45;;;20.60;62.60;;;;;;5038112;28;20047;-70
2023/04/04 10:34:37;;;;;;;1.15;0.20;;;20.70;62.60;;;;;;5032422;28;20049;-69
2023/04/04 10:37:08;;;;;;;1.52;0.82;;;20.60;62.60;;;;;;5025882;28;20816;-65
2023/04/04 10:39:41;;;;;;;0.57;0.10;;;20.70;62.50;;;;;;5018027;28;20045;-69
2023/04/04 10:42:10;;;;;;;1.27;0.45;;;20.70;62.50;;;;;;5034460;28;20045;-67
2023/04/04 10:44:38;;;;;;;1.67;0.30;;;20.70;62.60;;;;;;5042073;28;20060;-69
2023/04/04 10:47:14;;;;;;;0.60;0.20;;;20.80;62.60;;;;;;5035526;28;20057;-70
2023/04/04 10:49:43;;;;;;;;;;;20.80;62.70;;;;;;5036252;28;20055;-67
2023/04/04 10:52:12;;;;;;;1.13;0.38;;;20.80;62.70;;;;;;5028092;28;19925;-68
2023/04/04 10:54:40;;;;;;;1.08;0.57;;;20.80;62.60;;;;;;5027560;28;20517;-70
2023/04/04 10:57:08;;;;;;;1.27;0.10;;;20.90;62.70;;;;;;5032751;28;20053;-64
2023/04/04 10:59:55;;;;;;;1.33;0.10;;;20.90;62.70;;;;;;5041353;28;20494;-70
2023/04/04 11:02:47;;;;;;;0.65;0.20;;;20.90;62.70;;;;;;5038401;28;20072;-65
2023/04/04 11:05:21;;;;;;;1.10;0.40;;;20.90;62.80;;;;;;5033181;28;20927;-74
2023/04/04 11:07:52;;;;;;;0.50;0.10;;;20.90;62.80;;;;;;5032520;28;20045;-71
2023/04/04 11:10:23;;;;;;;0.60;0.10;;;21.00;62.80;;;;;;5045159;28;20484;-66
2023/04/04 11:12:55;;;;;;;0.90;0.52;;;21.00;62.90;;;;;;5039565;28;20478;-65
2023/04/04 11:15:23;;;;;;;1.08;0.38;;;21.00;62.90;;;;;;5019641;28;20045;-66
2023/04/04 11:17:55;;;;;;;2.47;0.20;;;21.00;63.00;;;;;;5034002;28;20046;-66
2023/04/04 11:20:28;;;;;;;1.55;0.50;;;21.10;63.10;;;;;;5030765;28;20136;-70
2023/04/04 11:23:07;;;;;;;0.90;0.50;;;21.10;63.00;;;;;;5031621;28;20049;-69
2023/04/04 11:25:39;;;;;;;1.08;0.10;;;21.10;63.10;;;;;;5036049;28;20421;-70
2023/04/04 11:28:08;;;;;;;1.73;0.50;;;21.10;63.10;;;;;;5037119;28;20045;-65
2023/04/04 11:30:43;;;;;;;0.77;0.00;;;21.10;63.10;;;;;;5031557;28;20437;-72
2023/04/04 11:33:12;;;;;;;1.15;0.52;;;21.10;63.00;;;;;;5035548;28;20060;-72
2023/04/04 11:35:45;;;;;;;1.23;0.13;;;21.20;63.10;;;;;;5029891;28;20557;-72
2023/04/04 11:38:14;;;;;;;1.15;0.10;;;21.20;63.10;;;;;;5042246;28;20049;-73
2023/04/04 11:40:43;;;;;;;1.00;0.50;;;21.20;63.10;;;;;;5031940;28;20545;-72
2023/04/04 11:43:15;;;;;;;1.38;0.57;;;21.20;63.10;;;;;;5037122;28;20502;-73
2023/04/04 11:45:46;;;;;;;1.23;0.50;;;21.30;63.10;;;;;;5037275;28;20124;-72
2023/04/04 11:48:17;;;;;;;1.00;0.40;;;21.30;63.10;;;;;;5034934;28;20052;-72
2023/04/04 11:50:50;;;;;;;1.00;0.50;;;21.30;63.10;;;;;;5038730;28;20118;-72
2023/04/04 11:53:17;;;;;;;0.77;0.32;;;21.30;63.20;;;;;;5040155;28;20068;-73
2023/04/04 11:55:48;;;;;;;0.50;0.10;;;21.30;63.10;;;;;;5030953;28;20060;-74
2023/04/04 11:58:17;;;;;;;1.65;0.20;;;21.30;63.10;;;;;;5037411;28;20052;-73
2023/04/04 12:00:44;;;;;;;1.40;0.15;;;21.40;63.20;;;;;;5042862;28;20049;-73
2023/04/04 12:03:12;;;;;;;0.95;0.10;;;21.40;63.20;;;;;;5038175;28;20041;-73
2023/04/04 12:05:41;;;;;;;1.45;0.65;;;21.40;63.20;;;;;;5035917;28;20041;-74
2023/04/04 12:08:11;;;;;;;1.45;0.60;;;21.40;63.20;;;;;;5033260;28;20048;-73
2023/04/04 12:10:40;;;;;;;0.82;0.20;;;21.40;63.20;;;;;;5034557;28;20056;-73
2023/04/04 12:13:08;;;;;;;1.33;0.60;;;21.40;63.20;;;;;;5042979;28;20087;-73
2023/04/04 12:15:36;;;;;;;1.23;0.50;;;21.40;63.20;;;;;;5037347;28;20524;-73
2023/04/04 12:18:06;;;;;;;1.27;0.60;;;21.50;63.30;;;;;;5038043;28;20045;-74
2023/04/04 12:20:33;;;;;;;0.98;0.47;;;21.50;63.40;;;;;;5036099;28;20047;-73
2023/04/04 12:23:00;;;;;;;0.98;0.30;;;21.50;63.30;;;;;;5035985;28;20052;-74
2023/04/04 12:25:32;;;;;;;1.13;0.28;;;21.50;63.30;;;;;;5039011;28;20041;-73
2023/04/04 12:28:00;;;;;;;1.35;0.55;;;21.50;63.40;;;;;;5035603;28;20055;-73
2023/04/04 12:30:27;;;;;;;0.88;0.10;;;21.50;63.40;;;;;;5033336;28;20056;-73
2023/04/04 12:32:55;;;;;;;0.88;0.10;;;21.50;63.40;;;;;;5030940;28;20047;-73
2023/04/04 12:35:22;;;;;;;0.98;0.30;;;21.50;63.40;;;;;;5034837;28;20049;-74
2023/04/04 12:38:00;;;;;;;1.08;0.10;;;21.60;63.40;;;;;;5032833;28;20088;-73
2023/04/04 12:40:37;;;;;;;0.82;0.10;;;21.60;63.50;;;;;;5038763;28;20056;-73
2023/04/04 12:43:06;;;;;;;2.10;0.30;;;21.60;63.50;;;;;;5037921;28;20124;-73
2023/04/04 12:45:36;;;;;;;1.33;0.10;;;21.60;63.40;;;;;;5036108;28;20156;-73
2023/04/04 12:48:10;;;;;;;0.80;0.40;;;21.60;63.40;;;;;;5038269;28;20135;-74
2023/04/04 12:50:49;;;;;;;1.15;0.22;;;21.60;63.40;;;;;;5037314;28;20072;-74
2023/04/04 12:53:16;;;;;;;0.70;0.32;;;21.60;63.50;;;;;;5044341;28;20045;-72